Time;durP1;ratioP1;P1;durP2;ratioP2;P2;SDS_P1;SDS_P2;PMS_P1;PMS_P2;Temp;Humidity;BMP_temperature;BMP_pressure;BME280_temperature;BME280_humidity;BME280_pressure;Samples;Min_cycle;Max_cycle;Signal;HPM_P1;HPM_P2
2022/07/11 00:00:55;;;;;;;1.63;1.20;;;24.70;43.60;;;;;;5052663;28;20426;-77
2022/07/11 00:03:23;;;;;;;1.00;1.00;;;24.60;43.60;;;;;;5051195;28;20491;-77
2022/07/11 00:05:51;;;;;;;1.00;1.00;;;24.60;43.60;;;;;;5033698;28;20522;-77
2022/07/11 00:08:20;;;;;;;1.10;1.00;;;24.60;43.80;;;;;;5052414;28;20865;-78
2022/07/11 00:10:48;;;;;;;1.47;1.10;;;24.60;43.60;;;;;;5043055;28;20513;-77
2022/07/11 00:13:15;;;;;;;1.13;1.13;;;24.60;43.70;;;;;;5045930;28;20436;-77
2022/07/11 00:15:43;;;;;;;0.90;0.90;;;24.60;43.60;;;;;;5052575;28;20469;-78
2022/07/11 00:18:11;;;;;;;1.27;1.13;;;24.60;43.60;;;;;;5052466;28;20461;-77
2022/07/11 00:20:39;;;;;;;1.50;1.20;;;24.60;43.70;;;;;;5035126;28;20498;-78
2022/07/11 00:23:07;;;;;;;1.00;1.00;;;24.60;43.50;;;;;;5031812;28;20449;-77
2022/07/11 00:25:36;;;;;;;1.03;1.03;;;24.60;43.60;;;;;;5032489;28;20412;-77
2022/07/11 00:28:04;;;;;;;1.50;1.40;;;24.60;43.60;;;;;;5032647;28;20471;-77
2022/07/11 00:30:32;;;;;;;1.20;1.20;;;24.60;43.60;;;;;;5032700;28;20420;-76
2022/07/11 00:32:59;;;;;;;1.30;1.20;;;24.60;43.70;;;;;;5037060;28;20449;-77
2022/07/11 00:35:27;;;;;;;1.00;1.00;;;24.60;43.70;;;;;;5036629;28;20410;-77
2022/07/11 00:37:55;;;;;;;1.73;1.13;;;24.60;43.60;;;;;;5032223;28;20418;-76
2022/07/11 00:40:23;;;;;;;0.93;0.93;;;24.60;43.60;;;;;;5032554;28;20450;-77
2022/07/11 00:42:52;;;;;;;0.90;0.90;;;24.60;43.60;;;;;;5032029;28;20438;-77
2022/07/11 00:45:19;;;;;;;1.00;1.00;;;24.50;43.50;;;;;;5032362;28;20420;-77
2022/07/11 00:47:47;;;;;;;1.00;1.00;;;24.50;43.50;;;;;;5032064;28;20445;-79
2022/07/11 00:50:15;;;;;;;1.00;1.00;;;24.60;43.80;;;;;;5040546;28;20459;-77
2022/07/11 00:52:43;;;;;;;1.10;0.97;;;24.60;43.60;;;;;;5031941;28;20438;-78
2022/07/11 00:55:11;;;;;;;0.93;0.93;;;24.50;43.60;;;;;;5031815;28;20449;-78
2022/07/11 00:57:38;;;;;;;0.90;0.90;;;24.50;43.70;;;;;;5032329;28;20435;-78
2022/07/11 01:00:09;;;;;;;1.43;1.00;;;24.50;43.60;;;;;;5032251;28;20486;-78
2022/07/11 01:02:37;;;;;;;3.53;1.13;;;24.50;43.60;;;;;;5032505;28;20433;-77
2022/07/11 01:05:05;;;;;;;1.20;1.10;;;24.50;43.70;;;;;;5045935;28;21157;-78
2022/07/11 01:07:33;;;;;;;1.20;1.10;;;24.50;43.80;;;;;;5035135;28;20442;-77
2022/07/11 01:10:01;;;;;;;1.47;1.20;;;24.50;43.60;;;;;;5032196;28;20445;-77
2022/07/11 01:12:28;;;;;;;1.20;1.10;;;24.50;43.60;;;;;;5031925;28;20438;-78
2022/07/11 01:14:59;;;;;;;1.00;0.90;;;24.40;43.60;;;;;;5032132;28;20522;-78
2022/07/11 01:17:28;;;;;;;0.90;0.90;;;24.40;43.60;;;;;;5031737;28;20414;-78
2022/07/11 01:19:56;;;;;;;0.90;0.90;;;24.50;43.70;;;;;;5031425;28;20475;-79
2022/07/11 01:22:25;;;;;;;0.90;0.90;;;24.40;43.70;;;;;;5034490;28;20456;-78
2022/07/11 01:24:54;;;;;;;2.03;1.20;;;24.40;43.70;;;;;;5050946;28;20549;-78
2022/07/11 01:27:23;;;;;;;0.90;0.90;;;24.50;43.70;;;;;;5051365;28;20512;-78
2022/07/11 01:29:51;;;;;;;1.30;1.20;;;24.40;43.60;;;;;;5051492;28;20429;-78
2022/07/11 01:32:19;;;;;;;1.00;0.90;;;24.40;43.80;;;;;;5051270;28;20525;-77
2022/07/11 01:34:47;;;;;;;0.90;0.90;;;24.40;43.70;;;;;;5051176;28;20541;-78
2022/07/11 01:37:16;;;;;;;1.10;1.00;;;24.40;43.60;;;;;;5051066;28;20449;-77
2022/07/11 01:39:44;;;;;;;1.20;1.10;;;24.40;43.60;;;;;;5042967;28;20425;-77
2022/07/11 01:42:13;;;;;;;0.90;0.90;;;24.40;43.60;;;;;;5051241;28;20435;-77
2022/07/11 01:44:41;;;;;;;1.00;1.00;;;24.30;43.60;;;;;;5051229;28;20535;-77
2022/07/11 01:47:09;;;;;;;0.90;0.90;;;24.30;43.60;;;;;;5051641;28;20872;-77
2022/07/11 01:49:37;;;;;;;1.53;1.10;;;24.30;43.60;;;;;;5050978;28;20454;-77
2022/07/11 01:52:06;;;;;;;1.30;1.20;;;24.30;43.80;;;;;;5051541;28;20472;-77
2022/07/11 01:54:33;;;;;;;0.90;0.90;;;24.30;43.60;;;;;;5049499;28;20474;-77
2022/07/11 01:57:01;;;;;;;0.90;0.90;;;24.30;43.80;;;;;;5043197;28;20419;-77
2022/07/11 01:59:30;;;;;;;1.00;1.00;;;24.30;43.70;;;;;;5051575;28;20450;-77
2022/07/11 02:01:59;;;;;;;0.80;0.80;;;24.30;43.70;;;;;;5052933;28;20413;-77
2022/07/11 02:04:27;;;;;;;1.00;0.90;;;24.20;43.60;;;;;;5054718;28;20576;-78
2022/07/11 02:06:54;;;;;;;0.93;0.93;;;24.30;43.60;;;;;;5054443;28;20472;-77
2022/07/11 02:09:22;;;;;;;0.90;0.90;;;24.20;43.60;;;;;;5054647;28;20500;-76
2022/07/11 02:11:50;;;;;;;0.70;0.70;;;24.20;43.80;;;;;;5053908;28;20953;-77
2022/07/11 02:14:18;;;;;;;0.83;0.83;;;24.30;43.60;;;;;;5048316;28;20460;-77
2022/07/11 02:16:47;;;;;;;1.10;1.00;;;24.20;43.60;;;;;;5034578;28;20457;-77
2022/07/11 02:19:15;;;;;;;1.00;1.00;;;24.20;43.60;;;;;;5034531;28;20505;-77
2022/07/11 02:21:43;;;;;;;0.90;0.90;;;24.30;43.70;;;;;;5034227;28;20974;-77
2022/07/11 02:24:11;;;;;;;0.80;0.80;;;24.30;43.60;;;;;;5034071;28;20992;-77
2022/07/11 02:26:39;;;;;;;0.73;0.73;;;24.20;43.70;;;;;;5038908;28;20456;-77
2022/07/11 02:29:07;;;;;;;0.80;0.80;;;24.20;43.60;;;;;;5054745;28;20450;-77
2022/07/11 02:31:35;;;;;;;0.90;0.90;;;24.20;43.60;;;;;;5054850;28;20529;-76
2022/07/11 02:34:04;;;;;;;0.80;0.80;;;24.20;43.50;;;;;;5054767;28;20544;-76
2022/07/11 02:36:32;;;;;;;1.17;1.10;;;24.20;43.50;;;;;;5054477;28;20529;-76
2022/07/11 02:39:00;;;;;;;0.87;0.87;;;24.10;43.60;;;;;;5054170;28;20451;-77
2022/07/11 02:41:29;;;;;;;1.00;0.93;;;24.10;43.60;;;;;;5054538;28;20425;-76
2022/07/11 02:43:57;;;;;;;0.90;0.90;;;24.10;43.60;;;;;;5054060;28;20545;-76
2022/07/11 02:46:25;;;;;;;0.90;0.90;;;24.10;43.60;;;;;;5054572;28;20509;-77
2022/07/11 02:48:53;;;;;;;1.40;1.10;;;24.10;43.80;;;;;;5054415;28;20555;-77
2022/07/11 02:51:23;;;;;;;1.10;1.00;;;24.10;43.70;;;;;;5054443;28;20417;-77
2022/07/11 02:53:51;;;;;;;1.13;0.80;;;24.10;43.60;;;;;;5054329;28;20441;-76
2022/07/11 02:56:18;;;;;;;0.90;0.90;;;24.10;43.70;;;;;;5054527;28;20432;-76
2022/07/11 02:58:46;;;;;;;0.90;0.90;;;24.10;43.60;;;;;;5054099;28;20431;-77
2022/07/11 03:01:13;;;;;;;0.90;0.90;;;24.10;43.60;;;;;;5053889;28;20514;-77
2022/07/11 03:03:41;;;;;;;1.13;1.03;;;24.10;43.70;;;;;;5053912;28;20437;-76
2022/07/11 03:06:11;;;;;;;1.23;0.93;;;24.10;43.70;;;;;;5053614;28;20470;-77
2022/07/11 03:08:40;;;;;;;0.90;0.90;;;24.10;43.80;;;;;;5054006;28;20444;-76
2022/07/11 03:11:08;;;;;;;1.77;0.80;;;24.10;43.70;;;;;;5053771;28;20446;-77
2022/07/11 03:13:36;;;;;;;1.23;0.83;;;24.10;43.80;;;;;;5052582;28;20524;-76
2022/07/11 03:16:05;;;;;;;0.90;0.90;;;24.10;43.80;;;;;;5053646;28;20401;-76
2022/07/11 03:18:33;;;;;;;0.80;0.80;;;24.00;43.70;;;;;;5053865;28;20432;-77
2022/07/11 03:21:01;;;;;;;0.93;0.80;;;24.10;43.70;;;;;;5053947;28;20418;-77
2022/07/11 03:23:29;;;;;;;1.47;0.77;;;24.10;43.60;;;;;;5053647;28;20464;-76
2022/07/11 03:25:58;;;;;;;1.20;1.10;;;24.10;43.80;;;;;;5053841;28;20523;-76
2022/07/11 03:28:25;;;;;;;3.17;0.80;;;24.10;43.60;;;;;;5053478;28;20410;-76
2022/07/11 03:30:53;;;;;;;0.80;0.80;;;24.00;43.60;;;;;;5053709;28;20454;-76
2022/07/11 03:33:21;;;;;;;1.10;1.00;;;24.10;43.70;;;;;;5053124;28;20541;-76
2022/07/11 03:35:49;;;;;;;0.90;0.90;;;24.10;43.70;;;;;;5053734;28;20475;-77
2022/07/11 03:38:19;;;;;;;1.30;0.87;;;24.00;43.60;;;;;;5053441;28;20521;-76
2022/07/11 03:40:47;;;;;;;0.70;0.70;;;24.10;43.80;;;;;;5053459;28;20446;-77
2022/07/11 03:43:16;;;;;;;1.70;0.80;;;24.00;43.60;;;;;;5052914;28;20429;-76
2022/07/11 03:45:44;;;;;;;0.80;0.80;;;24.00;43.50;;;;;;5052996;28;20470;-77
2022/07/11 03:48:12;;;;;;;0.90;0.90;;;24.00;43.60;;;;;;5052945;28;20799;-76
2022/07/11 03:50:39;;;;;;;0.70;0.70;;;23.90;43.70;;;;;;5053315;28;20441;-77
2022/07/11 03:53:07;;;;;;;0.80;0.80;;;24.00;43.80;;;;;;5053212;28;20465;-77
2022/07/11 03:55:36;;;;;;;0.93;0.93;;;24.00;43.50;;;;;;5053242;28;20410;-76
2022/07/11 03:58:04;;;;;;;2.13;0.87;;;24.00;43.60;;;;;;5052858;28;20427;-76
2022/07/11 04:00:33;;;;;;;1.90;0.80;;;24.00;43.60;;;;;;5053149;28;20408;-76
2022/07/11 04:03:01;;;;;;;0.77;0.77;;;24.00;43.60;;;;;;5053039;28;20464;-76
2022/07/11 04:05:29;;;;;;;1.27;0.80;;;24.00;43.80;;;;;;5052134;28;20451;-77
2022/07/11 04:07:58;;;;;;;1.00;0.70;;;24.00;43.60;;;;;;5032708;28;20460;-77
2022/07/11 04:10:26;;;;;;;0.80;0.80;;;24.00;43.70;;;;;;5033274;28;20451;-77
2022/07/11 04:12:54;;;;;;;2.47;0.90;;;24.00;43.80;;;;;;5032797;28;20550;-77
2022/07/11 04:15:22;;;;;;;0.90;0.90;;;24.00;43.70;;;;;;5033122;28;20509;-77
2022/07/11 04:17:51;;;;;;;0.80;0.73;;;24.00;43.60;;;;;;5032771;28;20509;-77
2022/07/11 04:20:19;;;;;;;0.83;0.83;;;24.00;43.60;;;;;;5032796;28;20483;-77
2022/07/11 04:22:49;;;;;;;0.97;0.80;;;24.00;43.70;;;;;;5032669;28;20558;-77
2022/07/11 04:25:17;;;;;;;0.70;0.70;;;24.00;43.70;;;;;;5046297;28;20493;-77
2022/07/11 04:27:45;;;;;;;0.80;0.80;;;24.00;43.60;;;;;;5052259;28;20419;-77
2022/07/11 04:30:13;;;;;;;1.00;0.90;;;24.00;43.80;;;;;;5051954;28;20457;-77
2022/07/11 04:32:40;;;;;;;0.90;0.90;;;24.00;43.60;;;;;;5051714;28;20524;-78
2022/07/11 04:35:10;;;;;;;0.70;0.70;;;24.00;43.90;;;;;;5051774;28;20425;-78
2022/07/11 04:37:38;;;;;;;0.80;0.80;;;24.00;43.80;;;;;;5052550;28;20504;-77
2022/07/11 04:40:07;;;;;;;0.80;0.70;;;24.00;43.70;;;;;;5051923;28;20530;-77
2022/07/11 04:42:40;;;;;;;1.10;1.00;;;24.00;43.80;;;;;;5040830;28;20437;-77
2022/07/11 04:45:09;;;;;;;0.70;0.70;;;24.00;43.80;;;;;;5052610;28;20504;-77
2022/07/11 04:47:36;;;;;;;0.77;0.77;;;24.00;43.80;;;;;;5052424;28;20529;-77
2022/07/11 04:50:05;;;;;;;1.07;0.90;;;24.00;43.80;;;;;;5052556;28;20500;-77
2022/07/11 04:52:34;;;;;;;0.97;0.97;;;24.10;43.80;;;;;;5052262;28;20515;-77
2022/07/11 04:55:02;;;;;;;0.70;0.70;;;24.10;43.70;;;;;;5052070;28;20417;-77
2022/07/11 04:57:29;;;;;;;1.03;0.93;;;24.10;43.80;;;;;;5052081;28;20416;-77
2022/07/11 04:59:57;;;;;;;0.90;0.90;;;24.10;43.60;;;;;;5052206;28;20420;-77
2022/07/11 05:02:25;;;;;;;0.80;0.80;;;24.10;43.70;;;;;;5052124;28;20439;-76
2022/07/11 05:04:54;;;;;;;0.83;0.83;;;24.00;43.70;;;;;;5052359;28;20435;-77
2022/07/11 05:07:22;;;;;;;0.70;0.70;;;24.10;43.90;;;;;;5052162;28;20528;-77
2022/07/11 05:09:51;;;;;;;0.80;0.80;;;24.10;43.70;;;;;;5052300;28;20408;-77
2022/07/11 05:12:20;;;;;;;0.80;0.80;;;24.10;43.80;;;;;;5051900;28;20413;-77
2022/07/11 05:14:48;;;;;;;0.90;0.90;;;24.10;43.70;;;;;;5051814;28;20454;-78
2022/07/11 05:17:15;;;;;;;0.70;0.70;;;24.10;43.70;;;;;;5052288;28;20412;-77
2022/07/11 05:19:43;;;;;;;0.70;0.70;;;24.10;43.50;;;;;;5052154;28;20445;-78
2022/07/11 05:22:11;;;;;;;0.70;0.70;;;24.10;43.70;;;;;;5052007;28;20492;-78
2022/07/11 05:24:39;;;;;;;1.07;0.97;;;24.10;43.80;;;;;;5052634;28;20420;-78
2022/07/11 05:27:08;;;;;;;1.00;0.90;;;24.10;43.60;;;;;;5051738;28;20470;-77
2022/07/11 05:29:36;;;;;;;0.90;0.90;;;24.20;43.80;;;;;;5051813;28;20502;-77
2022/07/11 05:32:04;;;;;;;0.90;0.90;;;24.20;43.70;;;;;;5051583;28;20454;-77
2022/07/11 05:34:32;;;;;;;0.80;0.80;;;24.20;43.50;;;;;;5051044;28;20501;-76
2022/07/11 05:37:00;;;;;;;0.70;0.70;;;24.20;43.70;;;;;;5053795;28;20495;-76
2022/07/11 05:39:28;;;;;;;0.87;0.83;;;24.30;43.70;;;;;;5055732;28;20504;-77
2022/07/11 05:41:55;;;;;;;1.00;1.00;;;24.30;43.70;;;;;;5055293;28;20443;-77
2022/07/11 05:44:24;;;;;;;0.80;0.70;;;24.30;43.60;;;;;;5055747;28;20429;-77
2022/07/11 05:46:52;;;;;;;0.90;0.70;;;24.30;43.60;;;;;;5055495;28;20569;-77
2022/07/11 05:49:20;;;;;;;0.83;0.83;;;24.30;43.70;;;;;;5055129;28;20501;-77
2022/07/11 05:51:48;;;;;;;0.60;0.60;;;24.40;43.70;;;;;;5055967;28;20476;-78
2022/07/11 05:54:16;;;;;;;0.80;0.80;;;24.40;43.50;;;;;;5055539;28;20562;-77
2022/07/11 05:56:44;;;;;;;1.03;0.90;;;24.40;43.60;;;;;;5055696;28;20545;-77
2022/07/11 05:59:12;;;;;;;1.07;0.80;;;24.40;43.60;;;;;;5055368;28;20435;-77
2022/07/11 06:01:42;;;;;;;0.90;0.90;;;24.40;43.60;;;;;;5055308;28;20434;-77
2022/07/11 06:04:10;;;;;;;1.20;1.10;;;24.50;43.70;;;;;;5054264;28;20413;-77
2022/07/11 06:06:38;;;;;;;1.00;1.00;;;24.40;43.50;;;;;;5055048;28;20553;-77
2022/07/11 06:09:05;;;;;;;1.10;1.00;;;24.50;43.60;;;;;;5055438;28;20427;-77
2022/07/11 06:11:32;;;;;;;0.87;0.87;;;24.50;43.60;;;;;;5055290;28;20532;-77
2022/07/11 06:14:00;;;;;;;1.00;1.00;;;24.50;43.40;;;;;;5055125;28;20486;-77
2022/07/11 06:16:28;;;;;;;2.00;1.00;;;24.50;43.50;;;;;;5055259;28;20402;-77
2022/07/11 06:18:57;;;;;;;1.10;1.10;;;24.40;43.50;;;;;;5054811;28;20537;-77
2022/07/11 06:21:25;;;;;;;0.90;0.90;;;24.40;43.60;;;;;;5052671;28;20438;-77
2022/07/11 06:23:53;;;;;;;1.10;0.90;;;24.40;43.70;;;;;;5037963;28;20516;-77
2022/07/11 06:26:20;;;;;;;0.87;0.87;;;24.40;44.30;;;;;;5054512;28;20967;-77
2022/07/11 06:28:48;;;;;;;1.40;1.30;;;24.50;43.80;;;;;;5054908;28;20443;-77
2022/07/11 06:31:16;;;;;;;1.10;0.90;;;24.50;43.70;;;;;;5054791;28;20492;-77
2022/07/11 06:33:44;;;;;;;1.00;1.00;;;24.50;43.60;;;;;;5054445;28;20473;-77
2022/07/11 06:36:14;;;;;;;1.30;1.20;;;24.60;43.70;;;;;;5053998;28;20477;-78
2022/07/11 06:38:41;;;;;;;0.90;0.90;;;24.60;43.80;;;;;;5054259;28;20465;-77
2022/07/11 06:41:09;;;;;;;1.10;1.10;;;24.60;43.70;;;;;;5054232;28;20451;-77
2022/07/11 06:43:37;;;;;;;1.00;0.90;;;24.70;43.60;;;;;;5054246;28;20528;-77
2022/07/11 06:46:05;;;;;;;1.00;1.00;;;24.70;43.50;;;;;;5054351;28;20434;-77
2022/07/11 06:48:32;;;;;;;0.83;0.83;;;24.80;43.60;;;;;;5054490;28;20416;-78
2022/07/11 06:51:00;;;;;;;0.70;0.70;;;24.80;43.50;;;;;;5054273;28;20426;-78
2022/07/11 06:53:34;;;;;;;0.80;0.80;;;24.90;43.40;;;;;;5054209;28;20455;-77
2022/07/11 06:56:02;;;;;;;0.90;0.90;;;25.00;43.30;;;;;;5052984;28;20497;-78
2022/07/11 06:58:33;;;;;;;0.90;0.90;;;25.00;43.10;;;;;;5044918;28;20442;-78
2022/07/11 07:01:01;;;;;;;0.87;0.87;;;25.10;43.20;;;;;;5053813;28;20512;-79
2022/07/11 07:03:30;;;;;;;1.00;1.00;;;25.20;43.20;;;;;;5053032;28;20998;-79
2022/07/11 07:05:58;;;;;;;0.97;0.97;;;25.20;43.20;;;;;;5053687;28;20440;-78
2022/07/11 07:08:26;;;;;;;6.20;0.87;;;25.20;43.10;;;;;;5053302;28;20541;-78
2022/07/11 07:10:56;;;;;;;0.90;0.90;;;25.20;43.10;;;;;;5052678;28;20467;-77
2022/07/11 07:13:25;;;;;;;0.80;0.80;;;25.20;43.10;;;;;;5053319;28;20942;-79
2022/07/11 07:15:53;;;;;;;0.70;0.70;;;25.20;43.00;;;;;;5034610;28;20414;-77
2022/07/11 07:18:21;;;;;;;0.70;0.70;;;25.20;43.10;;;;;;5034423;28;20501;-78
2022/07/11 07:20:50;;;;;;;0.80;0.80;;;25.10;43.10;;;;;;5033878;28;20444;-77
2022/07/11 07:23:17;;;;;;;3.17;0.80;;;25.10;43.10;;;;;;5033580;28;20446;-77
2022/07/11 07:25:45;;;;;;;0.90;0.80;;;25.00;43.20;;;;;;5033451;28;20417;-77
2022/07/11 07:28:14;;;;;;;0.90;0.90;;;25.00;43.30;;;;;;5039101;28;20444;-77
2022/07/11 07:30:42;;;;;;;0.80;0.80;;;25.00;43.20;;;;;;5053465;28;20440;-78
2022/07/11 07:33:12;;;;;;;0.80;0.80;;;25.10;43.20;;;;;;5053119;28;20445;-77
2022/07/11 07:35:39;;;;;;;1.00;0.80;;;25.10;43.20;;;;;;5053584;28;20397;-77
2022/07/11 07:38:07;;;;;;;0.83;0.83;;;25.10;43.20;;;;;;5052972;28;21037;-78
2022/07/11 07:40:35;;;;;;;0.70;0.70;;;25.10;43.20;;;;;;5053936;28;20413;-77
2022/07/11 07:43:02;;;;;;;0.77;0.77;;;25.10;43.20;;;;;;5053332;28;20501;-77
2022/07/11 07:45:32;;;;;;;0.90;0.80;;;25.20;43.20;;;;;;5052953;28;20429;-78
2022/07/11 07:48:00;;;;;;;1.00;0.83;;;25.20;43.20;;;;;;5053179;28;20936;-77
2022/07/11 07:50:28;;;;;;;0.90;0.60;;;25.20;43.10;;;;;;5053188;28;20425;-78
2022/07/11 07:52:56;;;;;;;1.30;0.90;;;25.20;43.10;;;;;;5053078;28;20975;-77
2022/07/11 07:55:25;;;;;;;0.83;0.83;;;25.20;43.20;;;;;;5052888;28;20425;-77
2022/07/11 07:57:53;;;;;;;0.70;0.70;;;25.20;43.10;;;;;;5053249;28;20500;-77
2022/07/11 08:03:08;;;;;;;0.80;0.80;;;25.20;43.00;;;;;;5052630;28;20480;-76
2022/07/11 08:05:37;;;;;;;0.83;0.83;;;25.20;43.10;;;;;;5052915;28;20935;-77
2022/07/11 08:08:05;;;;;;;0.70;0.70;;;25.20;43.20;;;;;;5053034;28;20478;-77
2022/07/11 08:10:33;;;;;;;3.63;0.70;;;25.30;43.20;;;;;;5035369;28;20452;-77
2022/07/11 08:13:01;;;;;;;1.00;1.00;;;25.30;43.20;;;;;;5060349;28;20475;-78
2022/07/11 08:15:29;;;;;;;0.80;0.80;;;25.30;43.30;;;;;;5052626;28;20504;-77
2022/07/11 08:17:57;;;;;;;0.87;0.87;;;25.30;43.20;;;;;;5052531;28;20421;-77
2022/07/11 08:20:26;;;;;;;0.83;0.83;;;25.40;43.30;;;;;;5052797;28;20425;-77
2022/07/11 08:22:59;;;;;;;1.03;0.80;;;25.40;43.20;;;;;;5052582;28;20438;-77
2022/07/11 08:25:27;;;;;;;5.50;1.00;;;25.60;43.10;;;;;;5052308;28;20473;-77
2022/07/11 08:27:54;;;;;;;0.80;0.70;;;25.70;43.20;;;;;;5052201;28;20474;-77
2022/07/11 08:30:23;;;;;;;0.70;0.70;;;25.80;42.90;;;;;;5052762;28;20512;-76
2022/07/11 08:32:51;;;;;;;0.80;0.80;;;25.90;42.90;;;;;;5052305;28;20528;-77
2022/07/11 08:35:19;;;;;;;2.00;0.87;;;25.90;42.80;;;;;;5052476;28;20456;-77
2022/07/11 08:37:48;;;;;;;1.00;0.80;;;26.00;42.80;;;;;;5052109;28;20469;-77
2022/07/11 08:40:16;;;;;;;0.80;0.80;;;26.10;42.70;;;;;;5052339;28;20409;-77
2022/07/11 08:42:44;;;;;;;0.80;0.80;;;26.20;42.70;;;;;;5052270;28;20486;-78
2022/07/11 08:45:12;;;;;;;0.80;0.80;;;26.20;42.60;;;;;;5051997;28;20409;-76
2022/07/11 08:47:40;;;;;;;0.90;0.90;;;26.20;42.60;;;;;;5051978;28;20937;-77
2022/07/11 08:50:10;;;;;;;1.07;1.00;;;26.20;42.60;;;;;;5052040;28;20535;-77
2022/07/11 08:52:38;;;;;;;1.80;0.90;;;26.20;42.70;;;;;;5042323;28;20552;-77
2022/07/11 08:55:08;;;;;;;0.77;0.63;;;26.30;42.80;;;;;;5052197;28;20505;-77
2022/07/11 08:57:36;;;;;;;0.80;0.80;;;26.30;42.70;;;;;;5051858;28;20434;-77
2022/07/11 09:00:06;;;;;;;0.80;0.80;;;26.30;42.70;;;;;;5050734;28;20525;-76
2022/07/11 09:02:34;;;;;;;0.60;0.60;;;26.30;42.80;;;;;;5050705;28;20561;-77
2022/07/11 09:05:05;;;;;;;1.30;0.73;;;26.40;42.80;;;;;;5044675;28;20420;-77
2022/07/11 09:07:33;;;;;;;1.17;0.93;;;26.40;42.90;;;;;;5031809;28;20448;-77
2022/07/11 09:10:01;;;;;;;0.63;0.60;;;26.50;42.70;;;;;;5034980;28;20534;-77
2022/07/11 09:12:30;;;;;;;0.70;0.70;;;26.40;42.70;;;;;;5048687;28;20440;-78
2022/07/11 09:14:59;;;;;;;0.70;0.70;;;26.50;42.80;;;;;;5055205;28;20433;-77
2022/07/11 09:17:28;;;;;;;0.70;0.70;;;26.50;42.80;;;;;;5042299;28;20405;-77
2022/07/11 09:19:56;;;;;;;0.77;0.77;;;26.60;42.70;;;;;;5055121;28;20940;-77
2022/07/11 09:25:23;;;;;;;0.73;0.73;;;26.70;42.80;;;;;;5054399;28;20529;-77
2022/07/11 09:27:53;;;;;;;0.60;0.60;;;26.80;42.70;;;;;;5048566;28;20445;-77
2022/07/11 09:30:25;;;;;;;0.70;0.70;;;26.90;42.70;;;;;;5046962;28;20501;-78
2022/07/11 09:32:58;;;;;;;0.70;0.70;;;26.90;42.60;;;;;;5054928;28;20524;-77
2022/07/11 09:35:27;;;;;;;0.70;0.70;;;27.00;42.70;;;;;;5055309;28;20903;-77
2022/07/11 09:37:54;;;;;;;0.60;0.60;;;27.20;42.60;;;;;;5054286;28;20437;-77
2022/07/11 09:40:23;;;;;;;4.63;0.60;;;27.30;42.60;;;;;;5054989;28;20480;-77
2022/07/11 09:42:54;;;;;;;0.60;0.60;;;27.30;42.60;;;;;;5052397;28;20488;-78
2022/07/11 09:45:22;;;;;;;0.80;0.80;;;27.30;42.60;;;;;;5049781;28;20418;-77
2022/07/11 09:47:51;;;;;;;0.80;0.80;;;27.20;42.60;;;;;;5054529;28;20433;-78
2022/07/11 09:50:19;;;;;;;0.60;0.60;;;27.20;42.60;;;;;;5054225;28;20456;-77
2022/07/11 09:53:03;;;;;;;0.70;0.70;;;27.20;42.70;;;;;;5054268;28;20508;-77
2022/07/11 09:55:31;;;;;;;0.73;0.73;;;27.10;42.80;;;;;;5051290;28;20541;-78
2022/07/11 09:58:21;;;;;;;1.03;0.70;;;27.20;43.00;;;;;;5052449;28;20424;-78
2022/07/11 10:00:50;;;;;;;0.60;0.60;;;27.30;42.80;;;;;;5047323;28;20465;-77
2022/07/11 10:03:18;;;;;;;0.70;0.70;;;27.50;42.80;;;;;;5051630;28;20458;-77
2022/07/11 10:06:06;;;;;;;0.50;0.50;;;27.40;42.60;;;;;;5051273;28;20400;-78
2022/07/11 10:08:34;;;;;;;0.70;0.70;;;27.40;42.70;;;;;;5047489;28;20468;-78
2022/07/11 10:11:02;;;;;;;1.43;0.60;;;27.40;42.70;;;;;;5042550;28;20538;-77
2022/07/11 10:13:32;;;;;;;0.50;0.50;;;27.40;42.90;;;;;;5044290;28;20561;-78
2022/07/11 10:16:00;;;;;;;0.60;0.60;;;27.50;42.90;;;;;;5044194;28;20450;-78
2022/07/11 10:18:32;;;;;;;0.57;0.50;;;27.70;42.80;;;;;;5040618;28;20443;-78
2022/07/11 10:21:01;;;;;;;0.70;0.70;;;27.80;42.50;;;;;;5040708;28;20539;-77
2022/07/11 10:23:32;;;;;;;0.60;0.50;;;27.80;42.40;;;;;;5051857;28;20558;-78
2022/07/11 10:26:05;;;;;;;0.50;0.50;;;27.70;42.50;;;;;;5060877;28;20442;-78
2022/07/11 10:28:38;;;;;;;2.20;0.50;;;27.70;42.60;;;;;;5054197;28;20474;-78
2022/07/11 10:31:06;;;;;;;1.10;0.60;;;27.70;42.60;;;;;;5036007;28;20478;-77
2022/07/11 10:33:34;;;;;;;0.80;0.60;;;27.70;42.70;;;;;;5046627;28;20585;-77
2022/07/11 10:36:02;;;;;;;0.60;0.60;;;27.60;42.70;;;;;;5042462;28;20582;-77
2022/07/11 10:38:30;;;;;;;1.40;0.60;;;27.50;42.80;;;;;;5034926;28;20438;-77
2022/07/11 10:41:00;;;;;;;0.60;0.60;;;27.40;43.00;;;;;;5034321;28;20435;-78
2022/07/11 10:43:38;;;;;;;0.50;0.50;;;27.40;43.10;;;;;;5052485;28;20537;-77
2022/07/11 10:46:07;;;;;;;0.70;0.60;;;27.30;43.20;;;;;;5054752;28;20421;-78
2022/07/11 10:48:37;;;;;;;0.80;0.70;;;27.30;43.30;;;;;;5055237;28;20471;-78
2022/07/11 10:51:11;;;;;;;0.63;0.63;;;27.20;43.30;;;;;;5054096;28;20530;-78
2022/07/11 10:53:41;;;;;;;0.50;0.50;;;27.10;43.50;;;;;;5061261;28;20528;-81
2022/07/11 10:56:16;;;;;;;1.80;0.50;;;27.10;43.50;;;;;;5047387;28;20432;-84
2022/07/11 10:59:13;;;;;;;0.60;0.50;;;27.20;43.30;;;;;;5053711;28;20781;-82
2022/07/11 11:02:12;;;;;;;0.60;0.60;;;27.20;43.60;;;;;;5069108;28;20442;-80
2022/07/11 11:04:43;;;;;;;0.60;0.60;;;27.10;43.80;;;;;;5068213;28;20425;-83
2022/07/11 11:07:36;;;;;;;1.00;0.90;;;27.20;43.60;;;;;;5068379;28;20454;-81
2022/07/11 11:10:06;;;;;;;0.60;0.60;;;27.10;43.90;;;;;;5069417;28;20496;-82
2022/07/11 11:13:14;;;;;;;0.70;0.53;;;27.10;43.70;;;;;;5053126;28;20510;-83
2022/07/11 11:15:51;;;;;;;0.60;0.60;;;27.00;44.00;;;;;;5047957;28;20455;-81
2022/07/11 11:18:42;;;;;;;0.63;0.63;;;27.00;43.70;;;;;;5047975;28;20453;-82
2022/07/11 11:21:20;;;;;;;0.60;0.60;;;27.00;43.90;;;;;;5047520;28;20451;-81
2022/07/11 11:24:03;;;;;;;0.77;0.77;;;27.00;43.80;;;;;;5047560;28;20446;-82
2022/07/11 11:26:50;;;;;;;2.00;0.70;;;27.10;44.00;;;;;;5044259;28;20432;-81
2022/07/11 11:29:24;;;;;;;0.60;0.50;;;27.20;44.00;;;;;;5059524;28;20456;-80
2022/07/11 11:31:58;;;;;;;0.60;0.60;;;27.20;43.60;;;;;;5057585;28;20466;-82
2022/07/11 11:34:26;;;;;;;2.40;0.67;;;27.20;43.60;;;;;;5055502;28;20521;-82
2022/07/11 11:36:59;;;;;;;0.77;0.77;;;27.30;43.70;;;;;;5055312;28;20473;-81
2022/07/11 11:39:29;;;;;;;0.80;0.80;;;27.30;43.70;;;;;;5052567;28;20448;-82
2022/07/11 11:42:05;;;;;;;0.60;0.60;;;27.30;43.70;;;;;;5052121;28;20497;-82
2022/07/11 11:44:33;;;;;;;0.60;0.50;;;27.30;43.60;;;;;;5036389;28;20517;-82
2022/07/11 11:47:03;;;;;;;0.87;0.60;;;27.20;43.60;;;;;;5049910;28;20462;-82
2022/07/11 11:49:45;;;;;;;0.80;0.80;;;27.30;43.70;;;;;;5052047;28;20494;-82
2022/07/11 11:52:13;;;;;;;0.60;0.60;;;27.30;43.70;;;;;;5055664;28;20514;-81
2022/07/11 11:54:42;;;;;;;0.57;0.53;;;27.30;44.20;;;;;;5055573;28;20450;-81
2022/07/11 11:57:11;;;;;;;0.70;0.60;;;27.30;43.60;;;;;;5047294;28;20474;-82
2022/07/11 11:59:40;;;;;;;0.60;0.60;;;27.30;43.60;;;;;;5040702;28;20958;-83
2022/07/11 12:02:12;;;;;;;1.43;0.77;;;27.30;43.60;;;;;;5056008;28;20441;-81
2022/07/11 12:04:42;;;;;;;0.60;0.60;;;27.30;43.60;;;;;;5047036;28;20501;-82
2022/07/11 12:07:11;;;;;;;0.60;0.60;;;27.40;43.60;;;;;;5056096;28;20572;-83
2022/07/11 12:09:50;;;;;;;0.50;0.50;;;27.50;43.60;;;;;;5058299;28;20527;-83
2022/07/11 12:15:06;;;;;;;0.50;0.50;;;28.00;43.10;;;;;;5059544;28;20453;-81
2022/07/11 12:17:37;;;;;;;0.60;0.60;;;28.10;42.60;;;;;;5058616;28;20500;-80
2022/07/11 12:20:06;;;;;;;0.60;0.60;;;28.10;42.60;;;;;;5044888;28;20470;-80
2022/07/11 12:22:44;;;;;;;0.50;0.50;;;28.20;42.70;;;;;;5037108;28;20498;-81
2022/07/11 12:25:12;;;;;;;1.33;0.60;;;28.50;42.60;;;;;;5054170;28;20442;-82
2022/07/11 12:27:40;;;;;;;0.60;0.60;;;29.10;42.00;;;;;;5055429;28;20434;-82
2022/07/11 12:30:10;;;;;;;0.70;0.50;;;29.40;41.30;;;;;;5058460;28;20546;-82
2022/07/11 12:32:39;;;;;;;0.67;0.67;;;29.40;41.00;;;;;;5057653;28;20474;-82
2022/07/11 12:35:12;;;;;;;0.67;0.50;;;29.40;41.00;;;;;;5052224;28;20446;-81
2022/07/11 12:37:40;;;;;;;0.60;0.60;;;29.40;41.10;;;;;;5042526;28;20462;-81
2022/07/11 12:40:09;;;;;;;1.47;0.60;;;29.30;41.20;;;;;;5061084;28;20469;-79
2022/07/11 12:42:46;;;;;;;0.70;0.70;;;29.30;41.20;;;;;;5063103;28;20509;-79
2022/07/11 12:45:13;;;;;;;0.60;0.53;;;29.30;41.20;;;;;;5062636;28;20431;-79
2022/07/11 12:47:42;;;;;;;0.60;0.60;;;29.30;41.20;;;;;;5064805;28;20464;-80
2022/07/11 12:50:14;;;;;;;0.60;0.60;;;29.40;41.40;;;;;;5062126;28;20570;-78
2022/07/11 12:52:45;;;;;;;0.60;0.50;;;29.30;41.30;;;;;;5053235;28;20478;-78
2022/07/11 12:55:20;;;;;;;0.60;0.60;;;29.20;41.40;;;;;;5042919;28;20434;-78
2022/07/11 12:58:02;;;;;;;0.83;0.50;;;29.10;41.60;;;;;;5039359;28;20450;-78
2022/07/11 13:00:31;;;;;;;0.90;0.70;;;29.10;41.90;;;;;;5060448;28;20409;-79
2022/07/11 13:03:01;;;;;;;0.60;0.60;;;29.00;41.70;;;;;;5060364;28;20462;-79
2022/07/11 13:05:29;;;;;;;2.60;0.70;;;29.10;41.90;;;;;;5053483;28;20443;-79
2022/07/11 13:10:53;;;;;;;0.60;0.60;;;29.10;41.90;;;;;;5046125;28;20545;-79